createdAt,value
2018-11-21T00:00:58.214Z,20.00
2018-11-21T00:03:40.778Z,18.97
2018-11-21T00:06:23.134Z,19.97
2018-11-21T00:09:07.167Z,23.10
2018-11-21T00:11:50.439Z,22.03
2018-11-21T00:14:32.949Z,30.20
2018-11-21T00:17:16.067Z,24.43
2018-11-21T00:20:16.468Z,29.77
2018-11-21T00:22:59.061Z,27.87
2018-11-21T00:25:41.169Z,26.50
2018-11-21T00:28:24.411Z,27.93
2018-11-21T00:31:07.872Z,35.17
2018-11-21T00:33:50.693Z,31.00
2018-11-21T00:36:33.128Z,35.00
2018-11-21T00:39:15.479Z,33.77
2018-11-21T00:41:58.398Z,31.77
2018-11-21T00:44:41.231Z,36.07
2018-11-21T00:47:23.776Z,37.27
2018-11-21T00:50:06.321Z,31.50
2018-11-21T00:52:48.729Z,31.07
2018-11-21T00:55:31.105Z,33.57
2018-11-21T00:58:13.570Z,30.97
2018-11-21T01:00:56.437Z,31.90
2018-11-21T01:03:38.674Z,28.40
2018-11-21T01:06:20.940Z,29.47
2018-11-21T01:09:03.464Z,24.40
2018-11-21T01:11:46.100Z,25.27
2018-11-21T01:14:28.578Z,19.40
2018-11-21T01:17:11.610Z,23.97
2018-11-21T01:19:54.255Z,20.30
2018-11-21T01:22:45.651Z,19.20
2018-11-21T01:25:54.730Z,19.03
2018-11-21T01:28:37.685Z,19.33
2018-11-21T01:31:21.315Z,18.70
2018-11-21T01:34:04.518Z,19.17
2018-11-21T01:36:47.598Z,17.27
2018-11-21T01:39:30.458Z,18.27
2018-11-21T01:42:13.323Z,16.40
2018-11-21T01:44:57.486Z,17.30
2018-11-21T01:47:40.083Z,12.03
2018-11-21T01:50:22.943Z,12.00
2018-11-21T01:53:05.419Z,10.10
2018-11-21T01:55:47.750Z,11.47
2018-11-21T01:58:29.913Z,11.07
2018-11-21T02:01:12.254Z,10.90
2018-11-21T02:03:54.236Z,10.47
2018-11-21T02:06:37.307Z,10.50
2018-11-21T02:09:20.490Z,11.67
2018-11-21T02:12:03.290Z,11.50
2018-11-21T02:14:46.179Z,12.13
2018-11-21T02:17:29.463Z,11.83
2018-11-21T02:20:12.214Z,12.63
2018-11-21T02:22:54.302Z,12.80
2018-11-21T02:25:37.461Z,11.80
2018-11-21T02:28:19.934Z,15.07
2018-11-21T02:31:03.167Z,14.93
2018-11-21T02:33:45.346Z,12.80
2018-11-21T02:36:28.659Z,14.15
2018-11-21T02:39:11.347Z,21.07
2018-11-21T02:41:53.705Z,14.33
2018-11-21T02:44:36.354Z,13.03
2018-11-21T02:47:18.773Z,14.98
2018-11-21T02:50:01.383Z,15.07
2018-11-21T02:52:44.053Z,13.75
2018-11-21T02:55:26.645Z,15.03
2018-11-21T02:58:09.259Z,17.40
2018-11-21T03:00:51.317Z,16.90
2018-11-21T03:03:34.244Z,17.50
2018-11-21T03:06:16.171Z,17.90
2018-11-21T03:08:58.538Z,18.20
2018-11-21T03:11:41.451Z,20.07
2018-11-21T03:14:24.230Z,17.87
2018-11-21T03:17:07.115Z,16.75
2018-11-21T03:19:49.291Z,17.52
2018-11-21T03:22:31.979Z,20.47
2018-11-21T03:25:14.787Z,16.67
2018-11-21T03:27:59.107Z,17.10
2018-11-21T03:33:57.722Z,16.87
2018-11-21T03:36:33.429Z,18.60
2018-11-21T03:39:08.161Z,16.02
2018-11-21T03:42:17.050Z,18.17
2018-11-21T03:44:59.932Z,16.43
2018-11-21T03:47:42.720Z,18.00
2018-11-21T03:50:25.558Z,18.85
2018-11-21T03:53:07.613Z,19.12
2018-11-21T03:55:49.993Z,16.75
2018-11-21T03:58:32.810Z,18.85
2018-11-21T04:01:15.995Z,16.48
2018-11-21T04:04:00.811Z,18.25
2018-11-21T04:06:43.916Z,17.25
2018-11-21T04:09:26.849Z,18.80
2018-11-21T04:12:09.909Z,18.48
2018-11-21T04:14:52.504Z,16.40
2018-11-21T04:17:35.392Z,18.83
2018-11-21T04:20:18.040Z,23.65
2018-11-21T04:23:00.534Z,17.80
2018-11-21T04:25:43.037Z,17.05
2018-11-21T04:28:26.247Z,15.40
2018-11-21T04:31:08.763Z,16.20
2018-11-21T04:33:50.824Z,17.47
2018-11-21T04:36:33.100Z,16.02
2018-11-21T04:39:15.963Z,14.80
2018-11-21T04:41:58.864Z,16.97
2018-11-21T04:44:41.483Z,21.53
2018-11-21T04:47:24.900Z,15.10
2018-11-21T04:50:07.089Z,14.75
2018-11-21T04:52:50.084Z,15.18
2018-11-21T04:55:33.653Z,16.10
2018-11-21T04:58:17.235Z,11.12
2018-11-21T05:00:59.582Z,12.37
2018-11-21T05:03:42.450Z,13.55
2018-11-21T05:06:24.623Z,14.05
2018-11-21T05:08:57.825Z,14.10
2018-11-21T05:12:07.036Z,10.93
2018-11-21T05:14:57.788Z,12.63
2018-11-21T05:17:41.342Z,13.78
2018-11-21T05:20:24.097Z,12.83
2018-11-21T05:23:06.642Z,12.80
2018-11-21T05:25:49.220Z,14.47
2018-11-21T05:28:34.741Z,12.15
2018-11-21T05:31:17.088Z,11.30
2018-11-21T05:33:59.448Z,15.00
2018-11-21T05:36:41.401Z,18.20
2018-11-21T05:39:24.099Z,17.80
2018-11-21T05:42:07.160Z,20.27
2018-11-21T05:44:44.904Z,21.65
2018-11-21T05:50:36.986Z,16.57
2018-11-21T05:53:19.656Z,15.93
2018-11-21T05:56:02.763Z,16.40
2018-11-21T05:58:45.534Z,16.07
2018-11-21T06:01:27.869Z,21.62
2018-11-21T06:04:09.852Z,24.82
2018-11-21T06:06:55.463Z,24.35
2018-11-21T06:12:39.671Z,21.45
2018-11-21T06:15:21.847Z,15.43
2018-11-21T06:18:04.888Z,15.85
2018-11-21T06:20:47.361Z,15.30
2018-11-21T06:23:29.850Z,19.37
2018-11-21T06:26:13.133Z,21.12
2018-11-21T06:28:55.752Z,19.40
2018-11-21T06:37:37.150Z,15.80
2018-11-21T06:40:20.111Z,14.98
2018-11-21T06:43:02.607Z,18.82
2018-11-21T06:45:35.049Z,19.48
2018-11-21T06:51:21.905Z,16.52
2018-11-21T06:54:04.541Z,17.07
2018-11-21T06:56:46.654Z,19.73
2018-11-21T07:02:38.424Z,15.53
2018-11-21T07:05:20.606Z,15.88
2018-11-21T07:08:03.849Z,18.00
2018-11-21T07:10:45.495Z,18.77
2018-11-21T07:16:38.063Z,17.65
2018-11-21T07:19:20.605Z,16.17
2018-11-21T07:22:03.696Z,14.53
2018-11-21T07:24:46.013Z,14.35
2018-11-21T07:27:29.134Z,13.03
2018-11-21T07:30:11.196Z,13.72
2018-11-21T07:32:53.553Z,13.28
2018-11-21T07:35:36.266Z,12.60
2018-11-21T07:38:08.610Z,12.93
2018-11-21T07:41:17.686Z,12.50
2018-11-21T07:44:00.380Z,12.30
2018-11-21T07:46:43.487Z,12.43
2018-11-21T07:49:25.508Z,12.30
2018-11-21T07:52:10.913Z,12.90
2018-11-21T07:54:53.317Z,13.00
2018-11-21T07:57:37.255Z,12.25
2018-11-21T08:00:19.566Z,12.35
2018-11-21T08:03:01.899Z,12.33
2018-11-21T08:05:46.497Z,12.33
2018-11-21T08:12:07.941Z,9.45
2018-11-21T08:15:09.104Z,11.30
2018-11-21T08:30:46.759Z,10.40
2018-11-21T08:33:33.840Z,12.25
2018-11-21T08:36:12.505Z,11.35
2018-11-21T08:38:55.372Z,10.48
2018-11-21T08:41:37.928Z,11.22
2018-11-21T08:44:20.592Z,10.95
2018-11-21T08:47:03.199Z,10.50
2018-11-21T08:49:46.100Z,11.73
2018-11-21T08:52:28.471Z,10.13
2018-11-21T08:55:12.834Z,10.63
2018-11-21T08:57:55.343Z,10.10
2018-11-21T09:00:36.783Z,11.75
2018-11-21T09:03:27.184Z,10.32
2018-11-21T09:06:10.201Z,10.28
2018-11-21T09:08:52.416Z,10.00
2018-11-21T09:11:35.298Z,10.50
2018-11-21T09:14:18.806Z,10.13
2018-11-21T09:17:00.435Z,9.93
2018-11-21T09:19:42.711Z,9.50
2018-11-21T09:22:25.439Z,9.70
2018-11-21T09:25:07.802Z,11.10
2018-11-21T09:27:50.894Z,10.20
2018-11-21T09:30:32.886Z,11.30
2018-11-21T09:33:16.474Z,9.93
2018-11-21T09:35:58.501Z,9.33
2018-11-21T09:38:40.719Z,9.38
2018-11-21T09:41:23.706Z,9.13
2018-11-21T09:44:06.859Z,9.30
2018-11-21T09:46:49.328Z,9.45
2018-11-21T09:49:31.325Z,9.18
2018-11-21T09:52:14.277Z,9.50
2018-11-21T09:54:57.441Z,7.95
2018-11-21T09:57:40.226Z,8.63
2018-11-21T10:00:51.193Z,9.03
2018-11-21T10:03:35.265Z,10.07
2018-11-21T10:06:17.918Z,9.67
2018-11-21T10:09:03.134Z,9.05
2018-11-21T10:11:36.394Z,9.70
2018-11-21T10:14:13.859Z,9.85
2018-11-21T10:16:48.334Z,9.63
2018-11-21T10:19:20.828Z,10.53
2018-11-21T10:21:53.712Z,10.95
2018-11-21T10:24:28.037Z,10.60
2018-11-21T10:27:13.913Z,13.47
2018-11-21T10:29:46.640Z,12.93
2018-11-21T10:32:33.172Z,12.05
2018-11-21T10:35:07.089Z,15.08
2018-11-21T10:37:39.682Z,15.43
2018-11-21T10:40:14.823Z,13.03
2018-11-21T10:43:10.153Z,13.72
2018-11-21T10:45:48.093Z,12.67
2018-11-21T10:48:21.710Z,11.70
2018-11-21T10:50:55.171Z,11.60
2018-11-21T10:53:33.185Z,12.80
2018-11-21T10:56:06.791Z,12.85
2018-11-21T10:58:39.114Z,12.43
2018-11-21T11:01:49.744Z,11.88
2018-11-21T11:04:29.643Z,11.35
2018-11-21T11:07:33.791Z,12.77
2018-11-21T11:10:37.053Z,12.07
2018-11-21T11:13:35.532Z,10.60
2018-11-21T11:16:43.119Z,11.77
2018-11-21T11:19:36.365Z,10.73
2018-11-21T11:22:32.601Z,11.10
2018-11-21T11:25:24.741Z,10.57
2018-11-21T11:28:21.751Z,9.63
2018-11-21T11:31:15.610Z,10.65
2018-11-21T11:34:11.827Z,8.85
2018-11-21T11:37:03.174Z,8.88
2018-11-21T11:39:57.609Z,8.73
2018-11-21T11:43:02.622Z,13.30
2018-11-21T11:46:02.937Z,10.00
2018-11-21T11:49:05.730Z,8.37
2018-11-21T11:51:55.775Z,7.80
2018-11-21T11:54:50.159Z,8.33
2018-11-21T11:57:40.242Z,8.00
2018-11-21T12:00:34.893Z,8.23
2018-11-21T12:03:36.894Z,8.63
2018-11-21T12:06:28.465Z,7.57
2018-11-21T12:09:22.334Z,7.87
2018-11-21T12:12:25.644Z,7.70
2018-11-21T12:15:31.867Z,7.33
2018-11-21T12:18:27.432Z,7.42
2018-11-21T12:21:16.746Z,8.50
2018-11-21T12:24:08.444Z,8.47
2018-11-21T12:27:09.716Z,7.63
2018-11-21T12:30:02.816Z,8.07
2018-11-21T12:33:40.812Z,8.10
2018-11-21T12:36:14.190Z,8.90
2018-11-21T12:39:07.246Z,9.58
2018-11-21T12:42:08.556Z,8.67
2018-11-21T12:44:56.635Z,8.90
2018-11-21T12:47:59.597Z,9.10
2018-11-21T12:50:50.712Z,8.23
2018-11-21T12:53:45.419Z,8.55
2018-11-21T12:56:43.736Z,8.53
2018-11-21T12:59:43.443Z,7.57
2018-11-21T13:02:37.790Z,8.23
2018-11-21T13:05:16.940Z,7.37
2018-11-21T13:08:06.894Z,7.33
2018-11-21T13:11:08.659Z,7.97
2018-11-21T13:13:58.425Z,8.43
2018-11-21T13:17:04.490Z,8.10
2018-11-21T13:19:53.426Z,7.67
2018-11-21T13:22:59.747Z,8.17
2018-11-21T13:25:59.793Z,7.90
2018-11-21T13:29:02.628Z,7.67
2018-11-21T13:31:52.975Z,8.07
2018-11-21T13:34:41.490Z,7.87
2018-11-21T13:37:35.309Z,8.23
2018-11-21T13:40:36.334Z,7.75
2018-11-21T13:43:33.163Z,7.97
2018-11-21T13:46:18.483Z,7.53
2018-11-21T13:49:08.108Z,8.20
2018-11-21T13:52:14.926Z,7.37
2018-11-21T13:54:50.006Z,6.90
2018-11-21T13:57:23.070Z,8.03
2018-11-21T13:59:55.541Z,8.30
2018-11-21T14:02:29.076Z,7.87
2018-11-21T14:05:07.797Z,7.87
2018-11-21T14:07:40.395Z,8.73
2018-11-21T14:10:14.817Z,7.93
2018-11-21T14:12:47.046Z,8.63
2018-11-21T14:15:19.849Z,7.57
2018-11-21T14:17:52.676Z,8.90
2018-11-21T14:20:25.628Z,8.40
2018-11-21T14:23:00.091Z,8.77
2018-11-21T14:25:32.848Z,8.33
2018-11-21T14:28:05.215Z,8.43
2018-11-21T14:30:37.579Z,8.63
2018-11-21T14:33:12.881Z,8.20
2018-11-21T14:35:46.446Z,8.73
2018-11-21T14:38:18.987Z,8.40
2018-11-21T14:40:51.788Z,8.47
2018-11-21T14:43:24.221Z,9.50
2018-11-21T14:45:56.873Z,8.60
2018-11-21T14:48:32.775Z,8.33
2018-11-21T14:51:05.310Z,8.50
2018-11-21T14:53:37.736Z,9.13
2018-11-21T14:56:11.071Z,9.20
2018-11-21T15:01:17.974Z,9.70
2018-11-21T15:03:50.485Z,9.93
2018-11-21T15:06:24.252Z,11.43
2018-11-21T15:08:56.609Z,12.40
2018-11-21T15:11:29.446Z,12.30
2018-11-21T15:14:02.181Z,12.07
2018-11-21T15:16:34.782Z,12.33
2018-11-21T15:19:08.482Z,13.40
2018-11-21T15:21:43.368Z,14.10
2018-11-21T15:24:16.029Z,13.53
2018-11-21T15:26:49.057Z,12.73
2018-11-21T15:29:22.612Z,13.63
2018-11-21T15:31:54.894Z,12.53
2018-11-21T15:34:27.929Z,13.33
2018-11-21T15:37:00.656Z,13.10
2018-11-21T15:39:43.078Z,13.60
2018-11-21T15:42:15.960Z,12.17
2018-11-21T15:44:48.363Z,13.23
2018-11-21T15:47:21.120Z,13.43
2018-11-21T15:49:54.220Z,13.17
2018-11-21T15:52:28.039Z,13.23
2018-11-21T15:55:01.915Z,14.40
2018-11-21T15:57:35.171Z,14.07
2018-11-21T16:00:09.460Z,15.33
2018-11-21T16:02:42.043Z,13.80
2018-11-21T16:05:16.650Z,13.23
2018-11-21T16:07:50.479Z,14.63
2018-11-21T16:10:29.166Z,15.00
2018-11-21T16:13:02.650Z,16.17
2018-11-21T16:15:36.986Z,15.10
2018-11-21T16:18:10.563Z,15.63
2018-11-21T16:20:43.108Z,14.47
2018-11-21T16:23:15.583Z,14.90
2018-11-21T16:25:48.221Z,13.33
2018-11-21T16:28:20.729Z,13.80
2018-11-21T16:30:53.159Z,13.90
2018-11-21T16:33:26.315Z,14.17
2018-11-21T16:35:58.649Z,14.27
2018-11-21T16:38:31.232Z,13.97
2018-11-21T16:41:03.907Z,14.53
2018-11-21T16:43:37.654Z,14.80
2018-11-21T16:46:09.748Z,14.83
2018-11-21T16:48:42.653Z,14.33
2018-11-21T16:51:15.315Z,13.63
2018-11-21T16:53:47.559Z,14.47
2018-11-21T16:56:20.474Z,14.93
2018-11-21T16:58:53.062Z,13.97
2018-11-21T17:01:25.150Z,13.17
2018-11-21T17:03:58.164Z,13.27
2018-11-21T17:06:30.893Z,13.60
2018-11-21T17:09:03.039Z,13.13
2018-11-21T17:11:36.527Z,14.33
2018-11-21T17:14:09.346Z,12.80
2018-11-21T17:16:41.951Z,14.47
2018-11-21T17:19:14.742Z,12.80
2018-11-21T17:21:47.352Z,13.87
2018-11-21T17:24:19.963Z,13.07
2018-11-21T17:26:52.403Z,13.70
2018-11-21T17:29:25.975Z,13.37
2018-11-21T17:31:58.652Z,14.47
2018-11-21T17:34:31.092Z,13.97
2018-11-21T17:37:03.809Z,13.87
2018-11-21T17:39:36.993Z,14.33
2018-11-21T17:42:09.564Z,14.87
2018-11-21T17:44:42.237Z,12.93
2018-11-21T17:47:14.943Z,13.47
2018-11-21T17:49:47.869Z,13.30
2018-11-21T17:52:19.645Z,13.97
2018-11-21T17:54:52.295Z,12.90
2018-11-21T17:57:28.049Z,14.00
2018-11-21T17:59:58.622Z,13.53
2018-11-21T18:02:31.420Z,13.93
2018-11-21T18:05:08.320Z,13.60
2018-11-21T18:07:36.309Z,15.37
2018-11-21T18:10:10.987Z,13.60
2018-11-21T18:12:43.748Z,13.20
2018-11-21T18:15:16.859Z,13.57
2018-11-21T18:17:50.818Z,13.20
2018-11-21T18:20:23.774Z,13.43
2018-11-21T18:22:56.244Z,13.87
2018-11-21T18:25:34.455Z,13.97
2018-11-21T18:28:06.935Z,16.03
2018-11-21T18:30:40.313Z,13.10
2018-11-21T18:33:12.662Z,13.33
2018-11-21T18:35:45.219Z,14.80
2018-11-21T18:38:17.601Z,13.00
2018-11-21T18:40:50.566Z,12.90
2018-11-21T18:43:23.989Z,12.43
2018-11-21T18:45:56.567Z,13.63
2018-11-21T18:48:29.748Z,13.00
2018-11-21T18:51:02.101Z,14.00
2018-11-21T18:53:34.829Z,12.53
2018-11-21T18:56:23.755Z,13.23
2018-11-21T18:59:21.636Z,12.73
2018-11-21T19:01:54.336Z,11.07
2018-11-21T19:04:26.820Z,12.50
2018-11-21T19:06:59.064Z,13.00
2018-11-21T19:09:31.409Z,12.37
2018-11-21T19:12:04.023Z,12.77
2018-11-21T19:14:36.669Z,12.83
2018-11-21T19:17:09.505Z,13.00
2018-11-21T19:19:42.406Z,12.60
2018-11-21T19:22:14.964Z,11.70
2018-11-21T19:24:47.783Z,12.17
2018-11-21T19:27:21.512Z,12.00
2018-11-21T19:29:55.233Z,12.93
2018-11-21T19:32:30.200Z,12.17
2018-11-21T19:35:02.821Z,12.30
2018-11-21T19:37:35.426Z,12.30
2018-11-21T19:40:09.222Z,13.20
2018-11-21T19:42:41.901Z,12.30
2018-11-21T19:45:16.479Z,12.50
2018-11-21T19:47:49.528Z,11.07
2018-11-21T19:50:22.171Z,12.97
2018-11-21T19:52:54.999Z,11.80
2018-11-21T19:55:30.029Z,12.53
2018-11-21T19:58:02.312Z,12.33
2018-11-21T20:00:35.818Z,12.23
2018-11-21T20:03:09.087Z,12.17
2018-11-21T20:05:41.413Z,11.77
2018-11-21T20:08:14.194Z,11.93
2018-11-21T20:10:46.626Z,12.77
2018-11-21T20:13:18.809Z,11.83
2018-11-21T20:15:53.338Z,12.17
2018-11-21T20:18:27.027Z,12.43
2018-11-21T20:21:00.467Z,12.40
2018-11-21T20:23:34.876Z,11.63
2018-11-21T20:26:08.905Z,13.30
2018-11-21T20:28:43.999Z,13.77
2018-11-21T20:31:17.370Z,11.63
2018-11-21T20:33:50.067Z,12.70
2018-11-21T20:36:22.292Z,11.53
2018-11-21T20:38:55.005Z,12.50
2018-11-21T20:41:27.800Z,14.07
2018-11-21T20:44:00.712Z,12.43
2018-11-21T20:46:34.199Z,12.97
2018-11-21T20:49:11.290Z,12.27
2018-11-21T20:51:39.580Z,12.47
2018-11-21T20:54:12.015Z,13.03
2018-11-21T20:56:44.957Z,13.10
2018-11-21T20:59:20.789Z,12.30
2018-11-21T21:01:53.272Z,12.53
2018-11-21T21:04:26.347Z,12.93
2018-11-21T21:06:58.723Z,12.97
2018-11-21T21:09:31.432Z,12.03
2018-11-21T21:12:05.472Z,11.80
2018-11-21T21:14:38.860Z,13.10
2018-11-21T21:17:11.306Z,13.10
2018-11-21T21:19:43.998Z,13.23
2018-11-21T21:22:18.466Z,13.73
2018-11-21T21:24:48.742Z,14.70
2018-11-21T21:27:21.730Z,13.43
2018-11-21T21:29:53.930Z,13.70
2018-11-21T21:32:26.313Z,12.60
2018-11-21T21:34:59.972Z,14.57
2018-11-21T21:37:32.341Z,12.87
2018-11-21T21:40:04.697Z,14.03
2018-11-21T21:42:37.592Z,13.93
2018-11-21T21:45:12.473Z,14.13
2018-11-21T21:47:44.779Z,13.33
2018-11-21T21:50:20.125Z,13.73
2018-11-21T21:52:52.761Z,14.77
2018-11-21T21:55:26.592Z,14.57
2018-11-21T21:57:59.556Z,14.23
2018-11-21T22:00:31.946Z,13.60
2018-11-21T22:03:04.474Z,14.13
2018-11-21T22:05:37.911Z,14.53
2018-11-21T22:08:11.320Z,14.83
2018-11-21T22:10:43.888Z,14.40
2018-11-21T22:13:16.456Z,13.13
2018-11-21T22:15:49.263Z,14.23
2018-11-21T22:18:22.986Z,14.07
2018-11-21T22:20:55.828Z,14.53
2018-11-21T22:23:28.461Z,16.30
2018-11-21T22:26:01.061Z,15.87
2018-11-21T22:28:33.843Z,13.47
2018-11-21T22:31:06.328Z,14.50
2018-11-21T22:33:39.080Z,14.43
2018-11-21T22:36:12.353Z,14.27
2018-11-21T22:38:44.852Z,14.87
2018-11-21T22:41:17.275Z,15.50
2018-11-21T22:43:51.512Z,16.03
2018-11-21T22:46:24.343Z,16.47
2018-11-21T22:48:57.032Z,16.10
2018-11-21T22:51:29.821Z,16.67
2018-11-21T22:54:02.964Z,16.77
2018-11-21T22:56:35.324Z,16.83
2018-11-21T22:59:07.787Z,17.67
2018-11-21T23:01:40.242Z,17.63
2018-11-21T23:04:12.663Z,18.63
2018-11-21T23:06:45.098Z,16.57
2018-11-21T23:09:17.804Z,17.00
2018-11-21T23:11:50.603Z,17.70
2018-11-21T23:14:23.040Z,16.33
2018-11-21T23:16:55.658Z,17.27
2018-11-21T23:19:28.272Z,17.03
2018-11-21T23:22:01.288Z,16.40
2018-11-21T23:24:33.496Z,17.13
2018-11-21T23:27:06.850Z,17.13
2018-11-21T23:29:39.005Z,17.23
2018-11-21T23:32:11.670Z,16.60
2018-11-21T23:34:45.725Z,17.40
2018-11-21T23:37:21.254Z,15.03
2018-11-21T23:39:54.787Z,14.60
2018-11-21T23:42:27.755Z,17.83
2018-11-21T23:45:00.352Z,16.10
2018-11-21T23:47:32.743Z,16.87
2018-11-21T23:50:05.560Z,15.03
2018-11-21T23:52:38.072Z,14.60
2018-11-21T23:55:16.662Z,16.10
2018-11-21T23:57:49.272Z,16.43
